sensor_id;sensor_type;location;lat;lon;timestamp;pressure;altitude;pressure_sealevel;temperature;humidity
57799;BME280;43626;53.866;30.298;2023-04-29T00:01:14;1025.3;;;5.1;52.3
57799;BME280;43626;53.866;30.298;2023-04-29T00:06:48;1025.3;;;5.1;52.3
57799;BME280;43626;53.866;30.298;2023-04-29T00:11:36;1025.3;;;5;52.2
57799;BME280;43626;53.866;30.298;2023-04-29T00:16:28;1025.4;;;5;52.3
57799;BME280;43626;53.866;30.298;2023-04-29T00:21:42;1025.4;;;5;52.3
57799;BME280;43626;53.866;30.298;2023-04-29T00:26:58;1025.4;;;5;52.1
57799;BME280;43626;53.866;30.298;2023-04-29T00:31:28;1025.4;;;4.9;52
57799;BME280;43626;53.866;30.298;2023-04-29T00:36:24;1025.4;;;4.9;52.1
57799;BME280;43626;53.866;30.298;2023-04-29T00:41:14;1025.5;;;4.8;52.1
57799;BME280;43626;53.866;30.298;2023-04-29T00:46:56;1025.4;;;4.7;52.6
57799;BME280;43626;53.866;30.298;2023-04-29T00:51:32;1025.4;;;4.7;52.9
57799;BME280;43626;53.866;30.298;2023-04-29T00:56:28;1025.4;;;4.7;52.9
57799;BME280;43626;53.866;30.298;2023-04-29T01:01:56;1025.4;;;4.6;53.1
57799;BME280;43626;53.866;30.298;2023-04-29T01:06:19;1025.5;;;4.6;53.1
57799;BME280;43626;53.866;30.298;2023-04-29T01:11:14;1025.5;;;4.6;53
57799;BME280;43626;53.866;30.298;2023-04-29T01:16:58;1025.5;;;4.6;52.8
57799;BME280;43626;53.866;30.298;2023-04-29T01:21:54;1025.5;;;4.6;52.7
57799;BME280;43626;53.866;30.298;2023-04-29T01:26:36;1025.6;;;4.5;52.6
57799;BME280;43626;53.866;30.298;2023-04-29T01:31:57;1025.6;;;4.5;52.8
57799;BME280;43626;53.866;30.298;2023-04-29T01:36:56;1025.7;;;4.5;52.6
57799;BME280;43626;53.866;30.298;2023-04-29T01:41:14;1025.6;;;4.4;52.9
57799;BME280;43626;53.866;30.298;2023-04-29T01:46:15;1025.6;;;4.4;53.3
57799;BME280;43626;53.866;30.298;2023-04-29T01:51:16;1025.6;;;4.3;53.4
57799;BME280;43626;53.866;30.298;2023-04-29T01:56:36;1025.6;;;4.3;53.3
57799;BME280;43626;53.866;30.298;2023-04-29T02:01:48;1025.7;;;4.3;53.6
57799;BME280;43626;53.866;30.298;2023-04-29T02:06:36;1025.7;;;4.3;53.7
57799;BME280;43626;53.866;30.298;2023-04-29T02:11:56;1025.8;;;4.3;53.4
57799;BME280;43626;53.866;30.298;2023-04-29T02:16:48;1025.8;;;4.3;53.2
57799;BME280;43626;53.866;30.298;2023-04-29T02:21:14;1025.9;;;4.3;53.3
57799;BME280;43626;53.866;30.298;2023-04-29T02:26:56;1025.9;;;4.2;53
57799;BME280;43626;53.866;30.298;2023-04-29T02:31:54;1025.9;;;4.2;53.1
57799;BME280;43626;53.866;30.298;2023-04-29T02:36:24;1025.9;;;4.2;53.3
57799;BME280;43626;53.866;30.298;2023-04-29T02:41:44;1025.9;;;4.1;53.5
57799;BME280;43626;53.866;30.298;2023-04-29T02:46:38;1025.9;;;4.1;53.7
57799;BME280;43626;53.866;30.298;2023-04-29T02:51:14;1026;;;4.1;53.7
57799;BME280;43626;53.866;30.298;2023-04-29T02:56:34;1026.1;;;4.1;53.7
57799;BME280;43626;53.866;30.298;2023-04-29T03:01:34;1026.1;;;4.1;53.6
57799;BME280;43626;53.866;30.298;2023-04-29T03:06:20;1026.2;;;4.2;53.6
57799;BME280;43626;53.866;30.298;2023-04-29T03:11:48;1026.3;;;4.3;53.4
57799;BME280;43626;53.866;30.298;2023-04-29T03:16:58;1026.4;;;4.3;53.5
57799;BME280;43626;53.866;30.298;2023-04-29T03:21:20;1026.5;;;4.4;53.5
57799;BME280;43626;53.866;30.298;2023-04-29T03:26:42;1026.5;;;4.5;53.5
57799;BME280;43626;53.866;30.298;2023-04-29T03:31:48;1026.5;;;4.6;53.8
57799;BME280;43626;53.866;30.298;2023-04-29T03:36:16;1026.6;;;4.7;54
57799;BME280;43626;53.866;30.298;2023-04-29T03:41:14;1026.6;;;4.9;53.3
57799;BME280;43626;53.866;30.298;2023-04-29T03:46:38;1026.6;;;5;53
57799;BME280;43626;53.866;30.298;2023-04-29T03:51:56;1026.7;;;5.2;52.6
57799;BME280;43626;53.866;30.298;2023-04-29T03:56:56;1026.7;;;5.3;51.9
57799;BME280;43626;53.866;30.298;2023-04-29T04:01:14;1026.7;;;5.5;51.9
57799;BME280;43626;53.866;30.298;2023-04-29T04:06:54;1026.8;;;5.6;51.7
57799;BME280;43626;53.866;30.298;2023-04-29T04:11:16;1026.8;;;5.8;51.7
57799;BME280;43626;53.866;30.298;2023-04-29T04:16:20;1026.7;;;6;51.5
57799;BME280;43626;53.866;30.298;2023-04-29T04:21:28;1026.7;;;6.2;51.2
57799;BME280;43626;53.866;30.298;2023-04-29T04:26:56;1026.7;;;6.3;50.6
57799;BME280;43626;53.866;30.298;2023-04-29T04:31:28;1026.8;;;6.5;50.5
57799;BME280;43626;53.866;30.298;2023-04-29T04:36:42;1026.8;;;6.6;50.2
57799;BME280;43626;53.866;30.298;2023-04-29T04:41:54;1026.9;;;6.8;50.2
57799;BME280;43626;53.866;30.298;2023-04-29T04:46:24;1026.9;;;6.9;50
57799;BME280;43626;53.866;30.298;2023-04-29T04:51:22;1026.9;;;7;50
57799;BME280;43626;53.866;30.298;2023-04-29T04:56:14;1027;;;7.2;49.8
57799;BME280;43626;53.866;30.298;2023-04-29T05:01:20;1027;;;7.4;49.6
57799;BME280;43626;53.866;30.298;2023-04-29T05:06:50;1027;;;7.6;49.3
57799;BME280;43626;53.866;30.298;2023-04-29T05:11:38;1026.9;;;7.8;49.1
57799;BME280;43626;53.866;30.298;2023-04-29T05:16:30;1027;;;7.9;49.2
57799;BME280;43626;53.866;30.298;2023-04-29T05:21:40;1027;;;8.1;48.9
57799;BME280;43626;53.866;30.298;2023-04-29T05:26:48;1027;;;8.2;48.1
57799;BME280;43626;53.866;30.298;2023-04-29T05:31:14;1027;;;8.4;47.9
57799;BME280;43626;53.866;30.298;2023-04-29T05:36:24;1027.1;;;8.5;47.5
57799;BME280;43626;53.866;30.298;2023-04-29T05:41:34;1027.1;;;8.7;47.3
57799;BME280;43626;53.866;30.298;2023-04-29T05:46:58;1027.1;;;8.8;47
57799;BME280;43626;53.866;30.298;2023-04-29T05:51:24;1027.1;;;8.8;46.8
57799;BME280;43626;53.866;30.298;2023-04-29T05:56:24;1027.1;;;8.9;46.5
57799;BME280;43626;53.866;30.298;2023-04-29T06:01:58;1027.2;;;9;46.4
57799;BME280;43626;53.866;30.298;2023-04-29T06:06:28;1027.2;;;9.2;46.5
57799;BME280;43626;53.866;30.298;2023-04-29T06:11:24;1027.2;;;9.3;45.9
57799;BME280;43626;53.866;30.298;2023-04-29T06:16:48;1027.2;;;9.3;45.1
57799;BME280;43626;53.866;30.298;2023-04-29T06:21:58;1027.2;;;9.5;45
57799;BME280;43626;53.866;30.298;2023-04-29T06:26:24;1027.2;;;9.6;43.9
57799;BME280;43626;53.866;30.298;2023-04-29T06:31:40;1027.3;;;9.6;43.6
57799;BME280;43626;53.866;30.298;2023-04-29T06:36:53;1027.3;;;9.7;43
57799;BME280;43626;53.866;30.298;2023-04-29T06:41:46;1027.4;;;9.8;42.8
57799;BME280;43626;53.866;30.298;2023-04-29T06:46:34;1027.4;;;9.9;42.2
57799;BME280;43626;53.866;30.298;2023-04-29T06:51:46;1027.4;;;10;42.4
57799;BME280;43626;53.866;30.298;2023-04-29T06:56:42;1027.4;;;10.1;42.5
57799;BME280;43626;53.866;30.298;2023-04-29T07:01:56;1027.4;;;10.3;41.7
57799;BME280;43626;53.866;30.298;2023-04-29T07:06:20;1027.4;;;10.3;40.8
57799;BME280;43626;53.866;30.298;2023-04-29T07:11:56;1027.4;;;10.4;39.1
57799;BME280;43626;53.866;30.298;2023-04-29T07:16:52;1027.4;;;10.5;38.8
57799;BME280;43626;53.866;30.298;2023-04-29T07:21:48;1027.4;;;10.5;38.7
57799;BME280;43626;53.866;30.298;2023-04-29T07:26:31;1027.4;;;10.5;38.3
57799;BME280;43626;53.866;30.298;2023-04-29T07:31:58;1027.4;;;10.6;37.6
57799;BME280;43626;53.866;30.298;2023-04-29T07:36:22;1027.4;;;10.8;38.1
57799;BME280;43626;53.866;30.298;2023-04-29T07:41:58;1027.4;;;10.9;38
57799;BME280;43626;53.866;30.298;2023-04-29T07:46:58;1027.4;;;11;37.5
57799;BME280;43626;53.866;30.298;2023-04-29T07:51:14;1027.4;;;11.1;37.3
57799;BME280;43626;53.866;30.298;2023-04-29T07:56:32;1027.3;;;11.2;37
57799;BME280;43626;53.866;30.298;2023-04-29T08:01:26;1027.2;;;11.3;36.9
57799;BME280;43626;53.866;30.298;2023-04-29T08:06:22;1027.2;;;11.5;36.1
57799;BME280;43626;53.866;30.298;2023-04-29T08:11:34;1027.2;;;11.4;35.8
57799;BME280;43626;53.866;30.298;2023-04-29T08:16:14;1027.3;;;11.3;33.5
57799;BME280;43626;53.866;30.298;2023-04-29T08:21:30;1027.3;;;11.2;34
57799;BME280;43626;53.866;30.298;2023-04-29T08:26:42;1027.3;;;11.3;33.2
57799;BME280;43626;53.866;30.298;2023-04-29T08:31:50;1027.3;;;11.5;31.5
57799;BME280;43626;53.866;30.298;2023-04-29T08:36:14;1027.3;;;11.5;31.6
57799;BME280;43626;53.866;30.298;2023-04-29T08:41:35;1027.3;;;11.6;31.8
57799;BME280;43626;53.866;30.298;2023-04-29T08:46:14;1027.3;;;11.8;30.8
57799;BME280;43626;53.866;30.298;2023-04-29T08:52:00;1027.3;;;11.9;30.2
57799;BME280;43626;53.866;30.298;2023-04-29T08:56:50;1027.3;;;12;30
57799;BME280;43626;53.866;30.298;2023-04-29T09:01:14;1027.3;;;12.3;29.7
57799;BME280;43626;53.866;30.298;2023-04-29T09:06:58;1027.3;;;12.5;28.5
57799;BME280;43626;53.866;30.298;2023-04-29T09:11:26;1027.3;;;12.6;28.2
57799;BME280;43626;53.866;30.298;2023-04-29T09:16:32;1027.3;;;12.7;28.1
57799;BME280;43626;53.866;30.298;2023-04-29T09:21:15;1027.3;;;12.6;28.3
57799;BME280;43626;53.866;30.298;2023-04-29T09:26:44;1027.3;;;12.6;28.1
57799;BME280;43626;53.866;30.298;2023-04-29T09:31:38;1027.3;;;12.3;28.9
57799;BME280;43626;53.866;30.298;2023-04-29T09:36:58;1027.3;;;12.2;29.4
57799;BME280;43626;53.866;30.298;2023-04-29T09:41:59;1027.3;;;12.4;29.4
57799;BME280;43626;53.866;30.298;2023-04-29T09:46:22;1027.2;;;12.5;29.1
57799;BME280;43626;53.866;30.298;2023-04-29T09:51:32;1027.2;;;12.6;29
57799;BME280;43626;53.866;30.298;2023-04-29T09:56:47;1027.1;;;12.7;27.6
57799;BME280;43626;53.866;30.298;2023-04-29T10:01:40;1027;;;12.7;27.2
57799;BME280;43626;53.866;30.298;2023-04-29T10:06:49;1027;;;12.8;28
57799;BME280;43626;53.866;30.298;2023-04-29T10:11:38;1027;;;12.9;28.6
57799;BME280;43626;53.866;30.298;2023-04-29T10:16:57;1027;;;12.9;27.8
57799;BME280;43626;53.866;30.298;2023-04-29T10:21:26;1027;;;12.9;27.8
57799;BME280;43626;53.866;30.298;2023-04-29T10:26:25;1027;;;12.9;28.1
57799;BME280;43626;53.866;30.298;2023-04-29T10:31:14;1027;;;12.9;27.6
57799;BME280;43626;53.866;30.298;2023-04-29T10:36:56;1026.9;;;12.9;27.7
57799;BME280;43626;53.866;30.298;2023-04-29T10:41:15;1026.9;;;13;28
57799;BME280;43626;53.866;30.298;2023-04-29T10:46:46;1027;;;13.1;27.9
57799;BME280;43626;53.866;30.298;2023-04-29T10:52:02;1027;;;13.2;27.9
57799;BME280;43626;53.866;30.298;2023-04-29T10:56:14;1027;;;13.4;27
57799;BME280;43626;53.866;30.298;2023-04-29T11:01:43;1027;;;13.5;26.5
57799;BME280;43626;53.866;30.298;2023-04-29T11:06:46;1027;;;13.4;26.6
57799;BME280;43626;53.866;30.298;2023-04-29T11:11:14;1027;;;13.5;27.2
57799;BME280;43626;53.866;30.298;2023-04-29T11:16:50;1027;;;13.7;26.4
57799;BME280;43626;53.866;30.298;2023-04-29T11:21:38;1026.9;;;13.9;27.8
57799;BME280;43626;53.866;30.298;2023-04-29T11:26:14;1027;;;14.3;27.6
57799;BME280;43626;53.866;30.298;2023-04-29T11:31:32;1026.9;;;14.3;27.1
57799;BME280;43626;53.866;30.298;2023-04-29T11:36:58;1026.8;;;14.5;26.9
57799;BME280;43626;53.866;30.298;2023-04-29T11:41:14;1026.8;;;14.4;26.7
57799;BME280;43626;53.866;30.298;2023-04-29T11:46:34;1026.8;;;14.5;26.7
57799;BME280;43626;53.866;30.298;2023-04-29T11:51:14;1026.8;;;14.4;26
57799;BME280;43626;53.866;30.298;2023-04-29T11:56:58;1026.7;;;14.5;25.7
57799;BME280;43626;53.866;30.298;2023-04-29T12:01:50;1026.7;;;14.8;26.1
57799;BME280;43626;53.866;30.298;2023-04-29T12:06:25;1026.6;;;15.1;26.3
57799;BME280;43626;53.866;30.298;2023-04-29T12:11:58;1026.6;;;15.2;26
57799;BME280;43626;53.866;30.298;2023-04-29T12:16:38;1026.6;;;15.1;25.8
57799;BME280;43626;53.866;30.298;2023-04-29T12:21:14;1026.6;;;15.1;25.7
57799;BME280;43626;53.866;30.298;2023-04-29T12:26:30;1026.5;;;15;25.7
57799;BME280;43626;53.866;30.298;2023-04-29T12:31:50;1026.4;;;15.3;25.4
57799;BME280;43626;53.866;30.298;2023-04-29T12:36:15;1026.3;;;15.5;25.5
57799;BME280;43626;53.866;30.298;2023-04-29T12:41:58;1026.4;;;15.5;25.3
57799;BME280;43626;53.866;30.298;2023-04-29T12:46:56;1026.3;;;15.5;25.2
57799;BME280;43626;53.866;30.298;2023-04-29T12:51:22;1026.3;;;15.6;25
57799;BME280;43626;53.866;30.298;2023-04-29T12:56:30;1026.3;;;15.7;24.4
57799;BME280;43626;53.866;30.298;2023-04-29T13:01:46;1026.3;;;15.8;24.3
57799;BME280;43626;53.866;30.298;2023-04-29T13:06:42;1026.3;;;16;24.6
57799;BME280;43626;53.866;30.298;2023-04-29T13:11:58;1026.3;;;16.2;24
57799;BME280;43626;53.866;30.298;2023-04-29T13:16:38;1026.2;;;16;24.6
57799;BME280;43626;53.866;30.298;2023-04-29T13:21:58;1026.2;;;16.2;24.5
57799;BME280;43626;53.866;30.298;2023-04-29T13:26:40;1026.2;;;16.5;24.2
57799;BME280;43626;53.866;30.298;2023-04-29T13:31:14;1026.1;;;16.7;23.7
57799;BME280;43626;53.866;30.298;2023-04-29T13:36:24;1026.1;;;16.8;23.5
57799;BME280;43626;53.866;30.298;2023-04-29T13:41:58;1026;;;16.7;22.6
57799;BME280;43626;53.866;30.298;2023-04-29T13:46:24;1026;;;16.7;22.6
57799;BME280;43626;53.866;30.298;2023-04-29T13:51:46;1026;;;16.7;22.2
57799;BME280;43626;53.866;30.298;2023-04-29T13:56:36;1026;;;16.7;21.6
57799;BME280;43626;53.866;30.298;2023-04-29T14:01:14;1026.1;;;16.9;22.8
57799;BME280;43626;53.866;30.298;2023-04-29T14:06:42;1026;;;17;22.3
57799;BME280;43626;53.866;30.298;2023-04-29T14:11:36;1025.9;;;16.9;22.4
57799;BME280;43626;53.866;30.298;2023-04-29T14:16:14;1025.9;;;16.9;22.4
57799;BME280;43626;53.866;30.298;2023-04-29T14:21:50;1025.8;;;16.6;22.3
57799;BME280;43626;53.866;30.298;2023-04-29T14:26:58;1025.8;;;16.5;22.6
57799;BME280;43626;53.866;30.298;2023-04-29T14:31:22;1025.7;;;16.7;22.3
57799;BME280;43626;53.866;30.298;2023-04-29T14:36:42;1025.7;;;17;22.3
57799;BME280;43626;53.866;30.298;2023-04-29T14:41:51;1025.6;;;17.2;22.4
57799;BME280;43626;53.866;30.298;2023-04-29T14:46:42;1025.6;;;17.6;22.7
57799;BME280;43626;53.866;30.298;2023-04-29T14:51:24;1025.5;;;17.7;22
57799;BME280;43626;53.866;30.298;2023-04-29T14:56:58;1025.5;;;17.8;22.2
57799;BME280;43626;53.866;30.298;2023-04-29T15:01:48;1025.5;;;18.1;21.7
57799;BME280;43626;53.866;30.298;2023-04-29T15:06:24;1025.5;;;18;21.8
57799;BME280;43626;53.866;30.298;2023-04-29T15:11:14;1025.5;;;17.9;21.7
57799;BME280;43626;53.866;30.298;2023-04-29T15:16:58;1025.5;;;18.1;21.7
57799;BME280;43626;53.866;30.298;2023-04-29T15:21:38;1025.4;;;18.3;21.5
57799;BME280;43626;53.866;30.298;2023-04-29T15:26:42;1025.4;;;18.6;20.9
57799;BME280;43626;53.866;30.298;2023-04-29T15:31:30;1025.4;;;18.6;19.9
57799;BME280;43626;53.866;30.298;2023-04-29T15:36:58;1025.3;;;18.9;20.6
57799;BME280;43626;53.866;30.298;2023-04-29T15:41:24;1025.3;;;18.8;20.6
57799;BME280;43626;53.866;30.298;2023-04-29T15:46:42;1025.3;;;19.1;20.7
57799;BME280;43626;53.866;30.298;2023-04-29T15:51:59;1025.2;;;19;21
57799;BME280;43626;53.866;30.298;2023-04-29T15:56:14;1025.2;;;19.1;21.1
57799;BME280;43626;53.866;30.298;2023-04-29T16:01:14;1025.2;;;19.4;21.1
57799;BME280;43626;53.866;30.298;2023-04-29T16:06:48;1025.2;;;20;20.9
57799;BME280;43626;53.866;30.298;2023-04-29T16:11:44;1025.2;;;20.6;20.8
57799;BME280;43626;53.866;30.298;2023-04-29T16:16:50;1025.2;;;21.1;19.5
57799;BME280;43626;53.866;30.298;2023-04-29T16:21:28;1025.2;;;21.1;19
57799;BME280;43626;53.866;30.298;2023-04-29T16:27:00;1025.2;;;21.4;18.7
57799;BME280;43626;53.866;30.298;2023-04-29T16:31:42;1025.2;;;20.9;18.4
57799;BME280;43626;53.866;30.298;2023-04-29T16:36:28;1025.2;;;19.9;18.8
57799;BME280;43626;53.866;30.298;2023-04-29T16:41:30;1025.2;;;19.1;19.6
57799;BME280;43626;53.866;30.298;2023-04-29T16:46:58;1025.2;;;18.3;20.1
57799;BME280;43626;53.866;30.298;2023-04-29T16:51:14;1025.3;;;17.8;21.1
57799;BME280;43626;53.866;30.298;2023-04-29T16:56:46;1025.3;;;17.4;22.1
57799;BME280;43626;53.866;30.298;2023-04-29T17:01:46;1025.4;;;17;22.6
57799;BME280;43626;53.866;30.298;2023-04-29T17:06:14;1025.4;;;16.5;23.4
57799;BME280;43626;53.866;30.298;2023-04-29T17:11:36;1025.5;;;16;25.3
57799;BME280;43626;53.866;30.298;2023-04-29T17:16:46;1025.5;;;15.9;26.3
57799;BME280;43626;53.866;30.298;2023-04-29T17:21:30;1025.5;;;15.9;26.8
57799;BME280;43626;53.866;30.298;2023-04-29T17:26:50;1025.5;;;15.4;27.8
57799;BME280;43626;53.866;30.298;2023-04-29T17:31:58;1025.6;;;15.1;29
57799;BME280;43626;53.866;30.298;2023-04-29T17:36:38;1025.6;;;14.8;29.8
57799;BME280;43626;53.866;30.298;2023-04-29T17:41:42;1025.6;;;14.5;30.3
57799;BME280;43626;53.866;30.298;2023-04-29T17:46:52;1025.7;;;14.2;31
57799;BME280;43626;53.866;30.298;2023-04-29T17:51:48;1025.7;;;14;31.6
57799;BME280;43626;53.866;30.298;2023-04-29T17:56:34;1025.8;;;13.7;32.2
57799;BME280;43626;53.866;30.298;2023-04-29T18:01:48;1025.9;;;13.5;33.8
57799;BME280;43626;53.866;30.298;2023-04-29T18:07:00;1026;;;13.2;35.3
57799;BME280;43626;53.866;30.298;2023-04-29T18:12:00;1026.1;;;13;36.4
57799;BME280;43626;53.866;30.298;2023-04-29T18:16:26;1026.1;;;12.8;36.4
57799;BME280;43626;53.866;30.298;2023-04-29T18:22:00;1026.2;;;12.6;37.2
57799;BME280;43626;53.866;30.298;2023-04-29T18:26:52;1026.2;;;12.4;37.7
57799;BME280;43626;53.866;30.298;2023-04-29T18:31:52;1026.2;;;12.3;37.1
57799;BME280;43626;53.866;30.298;2023-04-29T18:36:32;1026.2;;;12.2;36.8
57799;BME280;43626;53.866;30.298;2023-04-29T18:42:00;1026.2;;;12.1;37.1
57799;BME280;43626;53.866;30.298;2023-04-29T18:46:14;1026.2;;;11.9;37.6
57799;BME280;43626;53.866;30.298;2023-04-29T18:52:00;1026.2;;;11.8;38.1
57799;BME280;43626;53.866;30.298;2023-04-29T18:57:00;1026.2;;;11.5;38.6
57799;BME280;43626;53.866;30.298;2023-04-29T19:01:24;1026.1;;;11.3;39.6
57799;BME280;43626;53.866;30.298;2023-04-29T19:06:52;1026.1;;;11.1;41.9
57799;BME280;43626;53.866;30.298;2023-04-29T19:11:48;1026.1;;;11;43.5
57799;BME280;43626;53.866;30.298;2023-04-29T19:16:44;1026;;;10.9;44.4
57799;BME280;43626;53.866;30.298;2023-04-29T19:21:52;1026;;;10.8;44.4
57799;BME280;43626;53.866;30.298;2023-04-29T19:26:28;1026;;;10.7;44.1
57799;BME280;43626;53.866;30.298;2023-04-29T19:32:00;1026;;;10.6;44.1
57799;BME280;43626;53.866;30.298;2023-04-29T19:36:44;1026;;;10.5;44.6
57799;BME280;43626;53.866;30.298;2023-04-29T19:41:24;1025.9;;;10.3;45.1
57799;BME280;43626;53.866;30.298;2023-04-29T19:46:26;1025.9;;;10.2;45.4
57799;BME280;43626;53.866;30.298;2023-04-29T19:52:00;1025.8;;;10.1;46.3
57799;BME280;43626;53.866;30.298;2023-04-29T19:56:14;1025.8;;;10;47.6
57799;BME280;43626;53.866;30.298;2023-04-29T20:01:16;1025.8;;;9.9;48.1
57799;BME280;43626;53.866;30.298;2023-04-29T20:06:48;1025.8;;;9.8;48.4
57799;BME280;43626;53.866;30.298;2023-04-29T20:11:26;1025.8;;;9.7;48.7
57799;BME280;43626;53.866;30.298;2023-04-29T20:16:44;1025.8;;;9.6;48.6
57799;BME280;43626;53.866;30.298;2023-04-29T20:21:40;1025.8;;;9.5;48.3
57799;BME280;43626;53.866;30.298;2023-04-29T20:26:14;1025.8;;;9.4;48.2
57799;BME280;43626;53.866;30.298;2023-04-29T20:31:58;1025.7;;;9.3;48.3
57799;BME280;43626;53.866;30.298;2023-04-29T20:36:58;1025.7;;;9.2;48.5
57799;BME280;43626;53.866;30.298;2023-04-29T20:41:25;1025.7;;;9.1;48.5
57799;BME280;43626;53.866;30.298;2023-04-29T20:46:42;1025.7;;;9;48.7
57799;BME280;43626;53.866;30.298;2023-04-29T20:51:50;1025.7;;;8.9;49.7
57799;BME280;43626;53.866;30.298;2023-04-29T20:56:46;1025.7;;;8.8;50.3
57799;BME280;43626;53.866;30.298;2023-04-29T21:01:14;1025.7;;;8.7;50.6
57799;BME280;43626;53.866;30.298;2023-04-29T21:06:46;1025.7;;;8.7;50.8
57799;BME280;43626;53.866;30.298;2023-04-29T21:11:58;1025.6;;;8.6;50.9
57799;BME280;43626;53.866;30.298;2023-04-29T21:16:58;1025.7;;;8.5;50.8
57799;BME280;43626;53.866;30.298;2023-04-29T21:21:26;1025.7;;;8.5;50.5
57799;BME280;43626;53.866;30.298;2023-04-29T21:26:58;1025.7;;;8.4;50.4
57799;BME280;43626;53.866;30.298;2023-04-29T21:31:16;1025.6;;;8.3;50.4
57799;BME280;43626;53.866;30.298;2023-04-29T21:36:26;1025.6;;;8.2;50.3
57799;BME280;43626;53.866;30.298;2023-04-29T21:41:33;1025.6;;;8.2;50.4
57799;BME280;43626;53.866;30.298;2023-04-29T21:47:00;1025.5;;;8.1;51
57799;BME280;43626;53.866;30.298;2023-04-29T21:51:14;1025.5;;;8;51.4
57799;BME280;43626;53.866;30.298;2023-04-29T21:56:46;1025.5;;;7.9;51.6
57799;BME280;43626;53.866;30.298;2023-04-29T22:02:00;1025.5;;;7.9;51.9
57799;BME280;43626;53.866;30.298;2023-04-29T22:06:14;1025.4;;;7.8;52.1
57799;BME280;43626;53.866;30.298;2023-04-29T22:11:14;1025.4;;;7.7;52.1
57799;BME280;43626;53.866;30.298;2023-04-29T22:16:38;1025.4;;;7.7;51.9
57799;BME280;43626;53.866;30.298;2023-04-29T22:21:14;1025.4;;;7.7;51.7
57799;BME280;43626;53.866;30.298;2023-04-29T22:26:29;1025.4;;;7.6;51.6
57799;BME280;43626;53.866;30.298;2023-04-29T22:31:14;1025.4;;;7.6;51.6
57799;BME280;43626;53.866;30.298;2023-04-29T22:36:14;1025.3;;;7.5;51.6
57799;BME280;43626;53.866;30.298;2023-04-29T22:41:28;1025.3;;;7.4;52
57799;BME280;43626;53.866;30.298;2023-04-29T22:47:00;1025.3;;;7.3;52.5
57799;BME280;43626;53.866;30.298;2023-04-29T22:51:32;1025.3;;;7.3;52.5
57799;BME280;43626;53.866;30.298;2023-04-29T22:57:00;1025.3;;;7.2;52.7
57799;BME280;43626;53.866;30.298;2023-04-29T23:01:38;1025.3;;;7.1;52.8
57799;BME280;43626;53.866;30.298;2023-04-29T23:06:48;1025.2;;;7.1;52.8
57799;BME280;43626;53.866;30.298;2023-04-29T23:11:48;1025.2;;;7.1;52.4
57799;BME280;43626;53.866;30.298;2023-04-29T23:16:36;1025.3;;;7;52.2
57799;BME280;43626;53.866;30.298;2023-04-29T23:21:48;1025.3;;;7;52.3
57799;BME280;43626;53.866;30.298;2023-04-29T23:26:26;1025.2;;;6.9;52.2
57799;BME280;43626;53.866;30.298;2023-04-29T23:31:14;1025.2;;;6.9;52.3
57799;BME280;43626;53.866;30.298;2023-04-29T23:36:50;1025.2;;;6.8;52.6
57799;BME280;43626;53.866;30.298;2023-04-29T23:42:00;1025.2;;;6.7;52.7
57799;BME280;43626;53.866;30.298;2023-04-29T23:46:14;1025.2;;;6.7;52.9
57799;BME280;43626;53.866;30.298;2023-04-29T23:51:46;1025.2;;;6.6;53
57799;BME280;43626;53.866;30.298;2023-04-29T23:56:52;1025.2;;;6.6;53.2
